sensor_id;sensor_type;location;lat;lon;timestamp;P1;durP1;ratioP1;P2;durP2;ratioP2
11711;SDS011;5912;51.034;6.984;2023-06-14T00:01:17;4.85;;;3.90;;
11711;SDS011;5912;51.034;6.984;2023-06-14T00:03:45;4.13;;;3.67;;
11711;SDS011;5912;51.034;6.984;2023-06-14T00:06:10;4.22;;;3.83;;
11711;SDS011;5912;51.034;6.984;2023-06-14T00:08:36;4.63;;;4.18;;
11711;SDS011;5912;51.034;6.984;2023-06-14T00:11:01;9.52;;;4.45;;
11711;SDS011;5912;51.034;6.984;2023-06-14T00:13:28;4.32;;;3.92;;
11711;SDS011;5912;51.034;6.984;2023-06-14T00:15:53;5.10;;;4.07;;
11711;SDS011;5912;51.034;6.984;2023-06-14T00:18:19;5.32;;;4.00;;
11711;SDS011;5912;51.034;6.984;2023-06-14T00:20:48;4.30;;;3.90;;
11711;SDS011;5912;51.034;6.984;2023-06-14T00:23:14;4.82;;;3.97;;
11711;SDS011;5912;51.034;6.984;2023-06-14T00:25:40;4.30;;;3.90;;
11711;SDS011;5912;51.034;6.984;2023-06-14T00:28:05;4.00;;;3.60;;
11711;SDS011;5912;51.034;6.984;2023-06-14T00:30:30;4.60;;;4.10;;
11711;SDS011;5912;51.034;6.984;2023-06-14T00:32:55;5.35;;;4.13;;
11711;SDS011;5912;51.034;6.984;2023-06-14T00:35:21;4.43;;;3.75;;
11711;SDS011;5912;51.034;6.984;2023-06-14T00:37:46;4.03;;;3.63;;
11711;SDS011;5912;51.034;6.984;2023-06-14T00:40:11;5.18;;;3.88;;
11711;SDS011;5912;51.034;6.984;2023-06-14T00:42:37;4.57;;;4.13;;
11711;SDS011;5912;51.034;6.984;2023-06-14T00:45:02;5.50;;;3.92;;
11711;SDS011;5912;51.034;6.984;2023-06-14T00:47:28;5.50;;;3.60;;
11711;SDS011;5912;51.034;6.984;2023-06-14T00:49:53;4.38;;;3.97;;
11711;SDS011;5912;51.034;6.984;2023-06-14T00:52:20;4.72;;;4.25;;
11711;SDS011;5912;51.034;6.984;2023-06-14T00:54:47;4.32;;;3.92;;
11711;SDS011;5912;51.034;6.984;2023-06-14T00:57:12;5.70;;;4.13;;
11711;SDS011;5912;51.034;6.984;2023-06-14T00:59:41;7.05;;;4.00;;
11711;SDS011;5912;51.034;6.984;2023-06-14T01:02:07;5.28;;;4.13;;
11711;SDS011;5912;51.034;6.984;2023-06-14T01:04:33;7.22;;;4.40;;
11711;SDS011;5912;51.034;6.984;2023-06-14T01:07:02;5.85;;;4.18;;
11711;SDS011;5912;51.034;6.984;2023-06-14T01:12:48;5.15;;;3.88;;
11711;SDS011;5912;51.034;6.984;2023-06-14T01:15:20;4.00;;;3.67;;
11711;SDS011;5912;51.034;6.984;2023-06-14T01:17:46;4.07;;;3.58;;
11711;SDS011;5912;51.034;6.984;2023-06-14T01:20:16;4.10;;;3.67;;
11711;SDS011;5912;51.034;6.984;2023-06-14T01:23:00;4.35;;;3.95;;
11711;SDS011;5912;51.034;6.984;2023-06-14T01:25:26;4.13;;;3.72;;
11711;SDS011;5912;51.034;6.984;2023-06-14T01:28:02;4.43;;;4.00;;
11711;SDS011;5912;51.034;6.984;2023-06-14T01:30:29;8.73;;;3.80;;
11711;SDS011;5912;51.034;6.984;2023-06-14T01:32:56;4.32;;;3.33;;
11711;SDS011;5912;51.034;6.984;2023-06-14T01:35:22;3.63;;;3.33;;
11711;SDS011;5912;51.034;6.984;2023-06-14T01:37:48;4.20;;;3.78;;
11711;SDS011;5912;51.034;6.984;2023-06-14T01:40:15;5.00;;;4.28;;
11711;SDS011;5912;51.034;6.984;2023-06-14T01:42:41;3.90;;;3.55;;
11711;SDS011;5912;51.034;6.984;2023-06-14T01:45:08;5.63;;;4.03;;
11711;SDS011;5912;51.034;6.984;2023-06-14T01:47:35;4.70;;;3.80;;
11711;SDS011;5912;51.034;6.984;2023-06-14T01:50:01;3.88;;;3.50;;
11711;SDS011;5912;51.034;6.984;2023-06-14T01:52:27;4.10;;;3.70;;
11711;SDS011;5912;51.034;6.984;2023-06-14T01:54:53;5.93;;;3.97;;
11711;SDS011;5912;51.034;6.984;2023-06-14T01:57:18;4.10;;;3.50;;
11711;SDS011;5912;51.034;6.984;2023-06-14T01:59:44;3.58;;;3.20;;
11711;SDS011;5912;51.034;6.984;2023-06-14T02:02:13;4.82;;;3.83;;
11711;SDS011;5912;51.034;6.984;2023-06-14T02:04:40;5.72;;;3.55;;
11711;SDS011;5912;51.034;6.984;2023-06-14T02:07:05;3.70;;;3.30;;
11711;SDS011;5912;51.034;6.984;2023-06-14T02:09:31;5.35;;;3.67;;
11711;SDS011;5912;51.034;6.984;2023-06-14T02:11:56;4.18;;;3.78;;
11711;SDS011;5912;51.034;6.984;2023-06-14T02:14:21;3.72;;;3.22;;
11711;SDS011;5912;51.034;6.984;2023-06-14T02:16:48;3.97;;;3.58;;
11711;SDS011;5912;51.034;6.984;2023-06-14T02:19:18;4.43;;;3.67;;
11711;SDS011;5912;51.034;6.984;2023-06-14T02:21:44;3.67;;;3.33;;
11711;SDS011;5912;51.034;6.984;2023-06-14T02:24:10;4.93;;;3.45;;
11711;SDS011;5912;51.034;6.984;2023-06-14T02:26:36;3.97;;;3.47;;
11711;SDS011;5912;51.034;6.984;2023-06-14T02:29:06;4.63;;;3.65;;
11711;SDS011;5912;51.034;6.984;2023-06-14T02:31:33;4.07;;;3.45;;
11711;SDS011;5912;51.034;6.984;2023-06-14T02:34:00;4.28;;;3.35;;
11711;SDS011;5912;51.034;6.984;2023-06-14T02:36:25;4.15;;;3.45;;
11711;SDS011;5912;51.034;6.984;2023-06-14T02:38:51;3.97;;;3.58;;
11711;SDS011;5912;51.034;6.984;2023-06-14T02:41:19;4.07;;;3.67;;
11711;SDS011;5912;51.034;6.984;2023-06-14T02:43:44;6.57;;;3.97;;
11711;SDS011;5912;51.034;6.984;2023-06-14T02:46:10;5.30;;;3.17;;
11711;SDS011;5912;51.034;6.984;2023-06-14T02:48:36;4.15;;;3.65;;
11711;SDS011;5912;51.034;6.984;2023-06-14T02:51:01;6.15;;;3.78;;
11711;SDS011;5912;51.034;6.984;2023-06-14T02:53:27;4.38;;;3.50;;
11711;SDS011;5912;51.034;6.984;2023-06-14T02:55:52;4.22;;;3.53;;
11711;SDS011;5912;51.034;6.984;2023-06-14T02:58:20;5.28;;;3.47;;
11711;SDS011;5912;51.034;6.984;2023-06-14T03:00:45;5.60;;;3.70;;
11711;SDS011;5912;51.034;6.984;2023-06-14T03:03:11;3.95;;;3.55;;
11711;SDS011;5912;51.034;6.984;2023-06-14T03:05:43;3.80;;;3.40;;
11711;SDS011;5912;51.034;6.984;2023-06-14T03:08:12;5.57;;;3.90;;
11711;SDS011;5912;51.034;6.984;2023-06-14T03:10:44;4.53;;;3.60;;
11711;SDS011;5912;51.034;6.984;2023-06-14T03:13:13;4.03;;;3.63;;
11711;SDS011;5912;51.034;6.984;2023-06-14T03:15:38;3.67;;;3.30;;
11711;SDS011;5912;51.034;6.984;2023-06-14T03:18:07;4.03;;;3.05;;
11711;SDS011;5912;51.034;6.984;2023-06-14T03:20:33;4.80;;;3.50;;
11711;SDS011;5912;51.034;6.984;2023-06-14T03:23:01;4.22;;;3.83;;
11711;SDS011;5912;51.034;6.984;2023-06-14T03:25:27;4.43;;;3.70;;
11711;SDS011;5912;51.034;6.984;2023-06-14T03:27:55;4.38;;;3.78;;
11711;SDS011;5912;51.034;6.984;2023-06-14T03:30:21;3.85;;;3.45;;
11711;SDS011;5912;51.034;6.984;2023-06-14T03:32:46;3.67;;;3.38;;
11711;SDS011;5912;51.034;6.984;2023-06-14T03:35:11;5.70;;;3.30;;
11711;SDS011;5912;51.034;6.984;2023-06-14T03:37:42;3.85;;;3.45;;
11711;SDS011;5912;51.034;6.984;2023-06-14T03:40:11;6.65;;;3.78;;
11711;SDS011;5912;51.034;6.984;2023-06-14T03:42:38;4.72;;;3.72;;
11711;SDS011;5912;51.034;6.984;2023-06-14T03:45:03;3.75;;;3.42;;
11711;SDS011;5912;51.034;6.984;2023-06-14T03:47:29;4.28;;;3.40;;
11711;SDS011;5912;51.034;6.984;2023-06-14T03:49:55;4.40;;;3.60;;
11711;SDS011;5912;51.034;6.984;2023-06-14T03:52:21;3.75;;;3.33;;
11711;SDS011;5912;51.034;6.984;2023-06-14T03:54:47;5.40;;;3.78;;
11711;SDS011;5912;51.034;6.984;2023-06-14T03:57:12;4.50;;;3.88;;
11711;SDS011;5912;51.034;6.984;2023-06-14T03:59:38;4.20;;;3.70;;
11711;SDS011;5912;51.034;6.984;2023-06-14T04:02:03;4.30;;;3.78;;
11711;SDS011;5912;51.034;6.984;2023-06-14T04:04:29;4.35;;;3.90;;
11711;SDS011;5912;51.034;6.984;2023-06-14T04:06:55;4.00;;;3.60;;
11711;SDS011;5912;51.034;6.984;2023-06-14T04:09:21;4.88;;;4.03;;
11711;SDS011;5912;51.034;6.984;2023-06-14T04:11:49;5.30;;;4.30;;
11711;SDS011;5912;51.034;6.984;2023-06-14T04:14:15;3.63;;;3.30;;
11711;SDS011;5912;51.034;6.984;2023-06-14T04:16:40;4.68;;;3.97;;
11711;SDS011;5912;51.034;6.984;2023-06-14T04:19:06;5.53;;;4.20;;
11711;SDS011;5912;51.034;6.984;2023-06-14T04:21:31;4.10;;;3.67;;
11711;SDS011;5912;51.034;6.984;2023-06-14T04:26:50;4.43;;;3.55;;
11711;SDS011;5912;51.034;6.984;2023-06-14T04:29:16;6.65;;;4.00;;
11711;SDS011;5912;51.034;6.984;2023-06-14T04:31:44;6.68;;;4.20;;
11711;SDS011;5912;51.034;6.984;2023-06-14T04:34:11;3.75;;;3.40;;
11711;SDS011;5912;51.034;6.984;2023-06-14T04:36:41;6.13;;;3.83;;
11711;SDS011;5912;51.034;6.984;2023-06-14T04:39:14;4.72;;;3.50;;
11711;SDS011;5912;51.034;6.984;2023-06-14T04:41:41;4.50;;;3.25;;
11711;SDS011;5912;51.034;6.984;2023-06-14T04:44:06;4.28;;;3.50;;
11711;SDS011;5912;51.034;6.984;2023-06-14T04:46:32;4.18;;;3.63;;
11711;SDS011;5912;51.034;6.984;2023-06-14T04:48:57;4.60;;;3.58;;
11711;SDS011;5912;51.034;6.984;2023-06-14T04:51:26;4.70;;;3.10;;
11711;SDS011;5912;51.034;6.984;2023-06-14T04:53:57;4.03;;;3.10;;
11711;SDS011;5912;51.034;6.984;2023-06-14T04:56:23;5.28;;;3.65;;
11711;SDS011;5912;51.034;6.984;2023-06-14T04:58:50;3.20;;;2.90;;
11711;SDS011;5912;51.034;6.984;2023-06-14T05:01:15;3.45;;;3.13;;
11711;SDS011;5912;51.034;6.984;2023-06-14T05:03:40;3.35;;;2.70;;
11711;SDS011;5912;51.034;6.984;2023-06-14T05:06:06;3.63;;;2.58;;
11711;SDS011;5912;51.034;6.984;2023-06-14T05:08:31;3.33;;;3.00;;
11711;SDS011;5912;51.034;6.984;2023-06-14T05:10:56;3.30;;;2.95;;
11711;SDS011;5912;51.034;6.984;2023-06-14T05:13:22;4.40;;;2.67;;
11711;SDS011;5912;51.034;6.984;2023-06-14T05:15:48;3.13;;;2.83;;
11711;SDS011;5912;51.034;6.984;2023-06-14T05:18:13;5.13;;;3.25;;
11711;SDS011;5912;51.034;6.984;2023-06-14T05:20:40;3.47;;;2.72;;
11711;SDS011;5912;51.034;6.984;2023-06-14T05:23:07;5.15;;;3.17;;
11711;SDS011;5912;51.034;6.984;2023-06-14T05:25:32;2.70;;;2.50;;
11711;SDS011;5912;51.034;6.984;2023-06-14T05:27:58;4.30;;;2.83;;
11711;SDS011;5912;51.034;6.984;2023-06-14T05:30:23;4.78;;;3.60;;
11711;SDS011;5912;51.034;6.984;2023-06-14T05:32:48;3.50;;;3.13;;
11711;SDS011;5912;51.034;6.984;2023-06-14T05:35:13;4.55;;;3.28;;
11711;SDS011;5912;51.034;6.984;2023-06-14T05:37:39;3.50;;;2.75;;
11711;SDS011;5912;51.034;6.984;2023-06-14T05:40:04;3.22;;;2.92;;
11711;SDS011;5912;51.034;6.984;2023-06-14T05:42:31;5.22;;;2.60;;
11711;SDS011;5912;51.034;6.984;2023-06-14T05:44:57;3.53;;;3.03;;
11711;SDS011;5912;51.034;6.984;2023-06-14T05:47:22;4.80;;;2.80;;
11711;SDS011;5912;51.034;6.984;2023-06-14T05:49:47;9.05;;;3.20;;
11711;SDS011;5912;51.034;6.984;2023-06-14T05:52:13;3.38;;;3.00;;
11711;SDS011;5912;51.034;6.984;2023-06-14T05:54:38;5.13;;;2.80;;
11711;SDS011;5912;51.034;6.984;2023-06-14T05:57:03;4.20;;;2.90;;
11711;SDS011;5912;51.034;6.984;2023-06-14T05:59:31;4.60;;;2.75;;
11711;SDS011;5912;51.034;6.984;2023-06-14T06:01:56;5.88;;;2.67;;
11711;SDS011;5912;51.034;6.984;2023-06-14T06:04:22;4.35;;;3.05;;
11711;SDS011;5912;51.034;6.984;2023-06-14T06:06:48;3.78;;;2.58;;
11711;SDS011;5912;51.034;6.984;2023-06-14T06:09:13;3.70;;;2.50;;
11711;SDS011;5912;51.034;6.984;2023-06-14T06:11:41;5.28;;;2.50;;
11711;SDS011;5912;51.034;6.984;2023-06-14T06:14:06;4.60;;;2.67;;
11711;SDS011;5912;51.034;6.984;2023-06-14T06:16:32;7.80;;;2.78;;
11711;SDS011;5912;51.034;6.984;2023-06-14T06:18:57;5.03;;;2.65;;
11711;SDS011;5912;51.034;6.984;2023-06-14T06:21:23;3.85;;;2.65;;
11711;SDS011;5912;51.034;6.984;2023-06-14T06:23:48;4.63;;;2.67;;
11711;SDS011;5912;51.034;6.984;2023-06-14T06:26:13;2.72;;;2.53;;
11711;SDS011;5912;51.034;6.984;2023-06-14T06:28:39;2.28;;;2.08;;
11711;SDS011;5912;51.034;6.984;2023-06-14T06:31:04;3.38;;;2.28;;
11711;SDS011;5912;51.034;6.984;2023-06-14T06:33:30;2.40;;;2.03;;
11711;SDS011;5912;51.034;6.984;2023-06-14T06:35:55;2.88;;;2.10;;
11711;SDS011;5912;51.034;6.984;2023-06-14T06:38:21;3.78;;;2.28;;
11711;SDS011;5912;51.034;6.984;2023-06-14T06:40:46;3.03;;;2.47;;
11711;SDS011;5912;51.034;6.984;2023-06-14T06:43:12;3.10;;;2.28;;
11711;SDS011;5912;51.034;6.984;2023-06-14T06:45:39;3.58;;;2.08;;
11711;SDS011;5912;51.034;6.984;2023-06-14T06:48:05;2.40;;;1.95;;
11711;SDS011;5912;51.034;6.984;2023-06-14T06:50:30;2.50;;;2.22;;
11711;SDS011;5912;51.034;6.984;2023-06-14T06:52:55;3.83;;;2.38;;
11711;SDS011;5912;51.034;6.984;2023-06-14T06:55:21;3.08;;;2.17;;
11711;SDS011;5912;51.034;6.984;2023-06-14T06:57:46;5.20;;;2.03;;
11711;SDS011;5912;51.034;6.984;2023-06-14T07:00:11;3.20;;;1.95;;
11711;SDS011;5912;51.034;6.984;2023-06-14T07:02:37;3.50;;;1.65;;
11711;SDS011;5912;51.034;6.984;2023-06-14T07:05:03;2.10;;;1.60;;
11711;SDS011;5912;51.034;6.984;2023-06-14T07:07:29;2.70;;;1.70;;
11711;SDS011;5912;51.034;6.984;2023-06-14T07:09:54;1.92;;;1.80;;
11711;SDS011;5912;51.034;6.984;2023-06-14T07:12:22;3.38;;;1.67;;
11711;SDS011;5912;51.034;6.984;2023-06-14T07:14:48;2.00;;;1.73;;
11711;SDS011;5912;51.034;6.984;2023-06-14T07:17:13;5.43;;;1.80;;
11711;SDS011;5912;51.034;6.984;2023-06-14T07:19:38;3.47;;;1.45;;
11711;SDS011;5912;51.034;6.984;2023-06-14T07:22:03;1.80;;;1.50;;
11711;SDS011;5912;51.034;6.984;2023-06-14T07:24:29;3.88;;;1.67;;
11711;SDS011;5912;51.034;6.984;2023-06-14T07:26:54;3.05;;;1.48;;
11711;SDS011;5912;51.034;6.984;2023-06-14T07:29:21;1.38;;;1.25;;
11711;SDS011;5912;51.034;6.984;2023-06-14T07:31:46;1.83;;;1.20;;
11711;SDS011;5912;51.034;6.984;2023-06-14T07:34:12;1.40;;;1.30;;
11711;SDS011;5912;51.034;6.984;2023-06-14T07:36:37;1.60;;;1.40;;
11711;SDS011;5912;51.034;6.984;2023-06-14T07:39:03;2.10;;;1.30;;
11711;SDS011;5912;51.034;6.984;2023-06-14T07:41:28;2.47;;;1.48;;
11711;SDS011;5912;51.034;6.984;2023-06-14T07:43:54;1.65;;;1.13;;
11711;SDS011;5912;51.034;6.984;2023-06-14T07:46:20;1.05;;;0.93;;
11711;SDS011;5912;51.034;6.984;2023-06-14T07:48:45;1.60;;;1.15;;
11711;SDS011;5912;51.034;6.984;2023-06-14T07:51:10;1.27;;;1.10;;
11711;SDS011;5912;51.034;6.984;2023-06-14T07:53:36;1.42;;;1.15;;
11711;SDS011;5912;51.034;6.984;2023-06-14T07:56:01;1.27;;;1.17;;
11711;SDS011;5912;51.034;6.984;2023-06-14T07:58:27;1.60;;;1.05;;
11711;SDS011;5912;51.034;6.984;2023-06-14T08:00:53;1.65;;;1.50;;
11711;SDS011;5912;51.034;6.984;2023-06-14T08:03:18;2.15;;;1.10;;
11711;SDS011;5912;51.034;6.984;2023-06-14T08:05:44;1.52;;;1.08;;
11711;SDS011;5912;51.034;6.984;2023-06-14T08:08:09;1.48;;;1.13;;
11711;SDS011;5912;51.034;6.984;2023-06-14T08:10:35;1.30;;;1.20;;
11711;SDS011;5912;51.034;6.984;2023-06-14T08:13:00;3.17;;;1.30;;
11711;SDS011;5912;51.034;6.984;2023-06-14T08:15:25;1.83;;;1.20;;
11711;SDS011;5912;51.034;6.984;2023-06-14T08:17:51;1.30;;;1.20;;
11711;SDS011;5912;51.034;6.984;2023-06-14T08:20:17;1.55;;;1.20;;
11711;SDS011;5912;51.034;6.984;2023-06-14T08:22:42;1.55;;;1.10;;
11711;SDS011;5912;51.034;6.984;2023-06-14T08:25:08;3.17;;;1.10;;
11711;SDS011;5912;51.034;6.984;2023-06-14T08:27:34;1.95;;;1.38;;
11711;SDS011;5912;51.034;6.984;2023-06-14T08:30:00;1.20;;;1.10;;
11711;SDS011;5912;51.034;6.984;2023-06-14T08:32:25;1.02;;;0.93;;
11711;SDS011;5912;51.034;6.984;2023-06-14T08:34:50;1.88;;;1.17;;
11711;SDS011;5912;51.034;6.984;2023-06-14T08:37:16;1.30;;;1.13;;
11711;SDS011;5912;51.034;6.984;2023-06-14T08:39:41;1.45;;;1.30;;
11711;SDS011;5912;51.034;6.984;2023-06-14T08:42:08;2.20;;;1.20;;
11711;SDS011;5912;51.034;6.984;2023-06-14T08:44:35;3.55;;;1.20;;
11711;SDS011;5912;51.034;6.984;2023-06-14T08:47:00;1.75;;;1.05;;
11711;SDS011;5912;51.034;6.984;2023-06-14T08:49:28;2.70;;;1.40;;
11711;SDS011;5912;51.034;6.984;2023-06-14T08:51:58;1.55;;;1.33;;
11711;SDS011;5912;51.034;6.984;2023-06-14T08:54:28;3.47;;;1.20;;
11711;SDS011;5912;51.034;6.984;2023-06-14T08:56:59;1.00;;;0.90;;
11711;SDS011;5912;51.034;6.984;2023-06-14T08:59:25;1.33;;;1.23;;
11711;SDS011;5912;51.034;6.984;2023-06-14T09:01:52;2.85;;;1.20;;
11711;SDS011;5912;51.034;6.984;2023-06-14T09:04:17;1.55;;;1.13;;
11711;SDS011;5912;51.034;6.984;2023-06-14T09:06:44;1.50;;;1.20;;
11711;SDS011;5912;51.034;6.984;2023-06-14T09:09:10;2.10;;;1.10;;
11711;SDS011;5912;51.034;6.984;2023-06-14T09:11:36;1.48;;;1.13;;
11711;SDS011;5912;51.034;6.984;2023-06-14T09:14:01;1.23;;;1.02;;
11711;SDS011;5912;51.034;6.984;2023-06-14T09:16:26;1.35;;;1.20;;
11711;SDS011;5912;51.034;6.984;2023-06-14T09:18:52;2.00;;;1.40;;
11711;SDS011;5912;51.034;6.984;2023-06-14T09:21:18;2.22;;;1.40;;
11711;SDS011;5912;51.034;6.984;2023-06-14T09:23:45;1.90;;;1.20;;
11711;SDS011;5912;51.034;6.984;2023-06-14T09:26:13;1.42;;;1.30;;
11711;SDS011;5912;51.034;6.984;2023-06-14T09:31:10;2.72;;;1.42;;
11711;SDS011;5912;51.034;6.984;2023-06-14T09:33:36;1.90;;;1.20;;
11711;SDS011;5912;51.034;6.984;2023-06-14T09:36:02;2.13;;;1.60;;
11711;SDS011;5912;51.034;6.984;2023-06-14T09:38:28;1.42;;;0.93;;
11711;SDS011;5912;51.034;6.984;2023-06-14T09:40:57;1.38;;;1.08;;
11711;SDS011;5912;51.034;6.984;2023-06-14T09:43:23;1.35;;;1.17;;
11711;SDS011;5912;51.034;6.984;2023-06-14T09:45:51;2.00;;;1.27;;
11711;SDS011;5912;51.034;6.984;2023-06-14T09:48:16;1.90;;;1.58;;
11711;SDS011;5912;51.034;6.984;2023-06-14T09:50:45;2.53;;;1.33;;
11711;SDS011;5912;51.034;6.984;2023-06-14T09:53:14;1.42;;;1.17;;
11711;SDS011;5912;51.034;6.984;2023-06-14T09:55:40;2.60;;;1.33;;
11711;SDS011;5912;51.034;6.984;2023-06-14T09:58:07;1.17;;;1.05;;
11711;SDS011;5912;51.034;6.984;2023-06-14T10:00:34;2.55;;;1.30;;
11711;SDS011;5912;51.034;6.984;2023-06-14T10:03:14;1.42;;;1.33;;
11711;SDS011;5912;51.034;6.984;2023-06-14T10:05:45;1.52;;;1.15;;
11711;SDS011;5912;51.034;6.984;2023-06-14T10:08:13;1.17;;;1.08;;
11711;SDS011;5912;51.034;6.984;2023-06-14T10:10:41;1.35;;;1.10;;
11711;SDS011;5912;51.034;6.984;2023-06-14T10:13:08;2.00;;;1.10;;
11711;SDS011;5912;51.034;6.984;2023-06-14T10:24:03;1.20;;;1.10;;
11711;SDS011;5912;51.034;6.984;2023-06-14T10:26:32;1.33;;;1.23;;
11711;SDS011;5912;51.034;6.984;2023-06-14T10:31:48;1.40;;;1.20;;
11711;SDS011;5912;51.034;6.984;2023-06-14T10:34:20;1.50;;;1.13;;
11711;SDS011;5912;51.034;6.984;2023-06-14T10:36:50;3.80;;;1.20;;
11711;SDS011;5912;51.034;6.984;2023-06-14T10:39:26;2.97;;;1.20;;
11711;SDS011;5912;51.034;6.984;2023-06-14T10:41:52;1.20;;;1.10;;
11711;SDS011;5912;51.034;6.984;2023-06-14T10:46:47;4.00;;;1.88;;
11711;SDS011;5912;51.034;6.984;2023-06-14T10:49:16;3.05;;;1.30;;
11711;SDS011;5912;51.034;6.984;2023-06-14T10:51:55;1.45;;;1.25;;
11711;SDS011;5912;51.034;6.984;2023-06-14T10:54:22;2.03;;;1.20;;
11711;SDS011;5912;51.034;6.984;2023-06-14T10:56:49;1.58;;;1.02;;
11711;SDS011;5912;51.034;6.984;2023-06-14T10:59:16;1.20;;;1.10;;
11711;SDS011;5912;51.034;6.984;2023-06-14T11:01:55;1.65;;;1.23;;
11711;SDS011;5912;51.034;6.984;2023-06-14T11:04:49;0.95;;;0.85;;
11711;SDS011;5912;51.034;6.984;2023-06-14T11:10:22;1.33;;;1.23;;
11711;SDS011;5912;51.034;6.984;2023-06-14T11:13:02;3.30;;;1.20;;
11711;SDS011;5912;51.034;6.984;2023-06-14T11:15:31;3.20;;;1.00;;
11711;SDS011;5912;51.034;6.984;2023-06-14T11:17:57;1.65;;;1.17;;
11711;SDS011;5912;51.034;6.984;2023-06-14T11:20:27;3.53;;;1.25;;
11711;SDS011;5912;51.034;6.984;2023-06-14T11:22:55;1.20;;;1.10;;
11711;SDS011;5912;51.034;6.984;2023-06-14T11:25:20;1.52;;;1.00;;
11711;SDS011;5912;51.034;6.984;2023-06-14T11:27:45;1.40;;;1.10;;
11711;SDS011;5912;51.034;6.984;2023-06-14T11:30:13;1.52;;;1.13;;
11711;SDS011;5912;51.034;6.984;2023-06-14T11:32:39;1.15;;;1.05;;
11711;SDS011;5912;51.034;6.984;2023-06-14T11:35:05;2.15;;;1.10;;
11711;SDS011;5912;51.034;6.984;2023-06-14T11:37:31;2.42;;;1.17;;
11711;SDS011;5912;51.034;6.984;2023-06-14T11:39:59;0.85;;;0.85;;
11711;SDS011;5912;51.034;6.984;2023-06-14T11:42:29;2.08;;;1.17;;
11711;SDS011;5912;51.034;6.984;2023-06-14T11:44:55;2.13;;;0.82;;
11711;SDS011;5912;51.034;6.984;2023-06-14T11:47:21;1.25;;;0.90;;
11711;SDS011;5912;51.034;6.984;2023-06-14T11:49:48;1.30;;;0.82;;
11711;SDS011;5912;51.034;6.984;2023-06-14T11:52:13;3.08;;;0.95;;
11711;SDS011;5912;51.034;6.984;2023-06-14T11:54:39;0.90;;;0.80;;
11711;SDS011;5912;51.034;6.984;2023-06-14T11:57:08;1.00;;;0.90;;
11711;SDS011;5912;51.034;6.984;2023-06-14T11:59:38;1.58;;;0.80;;
11711;SDS011;5912;51.034;6.984;2023-06-14T12:02:05;1.02;;;0.80;;
11711;SDS011;5912;51.034;6.984;2023-06-14T12:04:31;1.67;;;0.80;;
11711;SDS011;5912;51.034;6.984;2023-06-14T12:06:57;2.90;;;0.90;;
11711;SDS011;5912;51.034;6.984;2023-06-14T12:09:23;1.80;;;0.90;;
11711;SDS011;5912;51.034;6.984;2023-06-14T12:11:50;0.65;;;0.60;;
11711;SDS011;5912;51.034;6.984;2023-06-14T12:14:31;1.77;;;0.73;;
11711;SDS011;5912;51.034;6.984;2023-06-14T12:17:06;1.48;;;0.93;;
11711;SDS011;5912;51.034;6.984;2023-06-14T12:19:32;0.80;;;0.80;;
11711;SDS011;5912;51.034;6.984;2023-06-14T12:22:01;2.08;;;0.70;;
11711;SDS011;5912;51.034;6.984;2023-06-14T12:24:30;0.55;;;0.50;;
11711;SDS011;5912;51.034;6.984;2023-06-14T12:27:00;1.05;;;0.80;;
11711;SDS011;5912;51.034;6.984;2023-06-14T12:29:27;0.95;;;0.77;;
11711;SDS011;5912;51.034;6.984;2023-06-14T12:31:53;0.90;;;0.80;;
11711;SDS011;5912;51.034;6.984;2023-06-14T12:34:19;3.33;;;1.00;;
11711;SDS011;5912;51.034;6.984;2023-06-14T12:36:45;0.70;;;0.68;;
11711;SDS011;5912;51.034;6.984;2023-06-14T12:39:11;2.38;;;0.73;;
11711;SDS011;5912;51.034;6.984;2023-06-14T12:41:37;1.98;;;0.70;;
11711;SDS011;5912;51.034;6.984;2023-06-14T12:44:03;1.42;;;0.70;;
11711;SDS011;5912;51.034;6.984;2023-06-14T12:46:30;3.35;;;0.80;;
11711;SDS011;5912;51.034;6.984;2023-06-14T12:48:56;1.30;;;0.77;;
11711;SDS011;5912;51.034;6.984;2023-06-14T12:51:21;0.90;;;0.70;;
11711;SDS011;5912;51.034;6.984;2023-06-14T12:53:47;1.40;;;0.85;;
11711;SDS011;5912;51.034;6.984;2023-06-14T12:56:13;0.70;;;0.70;;
11711;SDS011;5912;51.034;6.984;2023-06-14T12:58:39;0.80;;;0.73;;
11711;SDS011;5912;51.034;6.984;2023-06-14T13:01:04;0.90;;;0.68;;
11711;SDS011;5912;51.034;6.984;2023-06-14T13:03:30;2.22;;;0.73;;
11711;SDS011;5912;51.034;6.984;2023-06-14T13:05:55;2.25;;;0.70;;
11711;SDS011;5912;51.034;6.984;2023-06-14T13:08:21;1.23;;;0.77;;
11711;SDS011;5912;51.034;6.984;2023-06-14T13:10:47;0.57;;;0.57;;
11711;SDS011;5912;51.034;6.984;2023-06-14T13:13:12;0.88;;;0.88;;
11711;SDS011;5912;51.034;6.984;2023-06-14T13:15:38;3.22;;;0.93;;
11711;SDS011;5912;51.034;6.984;2023-06-14T13:18:04;1.38;;;1.00;;
11711;SDS011;5912;51.034;6.984;2023-06-14T13:20:31;1.00;;;0.80;;
11711;SDS011;5912;51.034;6.984;2023-06-14T13:22:56;1.48;;;0.70;;
11711;SDS011;5912;51.034;6.984;2023-06-14T13:25:22;1.10;;;0.85;;
11711;SDS011;5912;51.034;6.984;2023-06-14T13:27:48;0.90;;;0.85;;
11711;SDS011;5912;51.034;6.984;2023-06-14T13:30:13;1.65;;;0.80;;
11711;SDS011;5912;51.034;6.984;2023-06-14T13:32:39;1.23;;;1.10;;
11711;SDS011;5912;51.034;6.984;2023-06-14T13:35:05;1.35;;;1.10;;
11711;SDS011;5912;51.034;6.984;2023-06-14T13:37:30;3.63;;;0.98;;
11711;SDS011;5912;51.034;6.984;2023-06-14T13:39:56;1.15;;;0.60;;
11711;SDS011;5912;51.034;6.984;2023-06-14T13:42:21;1.17;;;0.80;;
11711;SDS011;5912;51.034;6.984;2023-06-14T13:44:47;2.15;;;0.95;;
11711;SDS011;5912;51.034;6.984;2023-06-14T13:47:12;3.33;;;1.10;;
11711;SDS011;5912;51.034;6.984;2023-06-14T13:49:37;1.30;;;0.70;;
11711;SDS011;5912;51.034;6.984;2023-06-14T13:52:03;1.48;;;0.98;;
11711;SDS011;5912;51.034;6.984;2023-06-14T13:54:28;2.08;;;1.02;;
11711;SDS011;5912;51.034;6.984;2023-06-14T13:56:54;2.35;;;1.00;;
11711;SDS011;5912;51.034;6.984;2023-06-14T13:59:19;1.67;;;0.90;;
11711;SDS011;5912;51.034;6.984;2023-06-14T14:01:45;3.60;;;1.20;;
11711;SDS011;5912;51.034;6.984;2023-06-14T14:04:10;1.15;;;1.00;;
11711;SDS011;5912;51.034;6.984;2023-06-14T14:06:36;1.30;;;1.08;;
11711;SDS011;5912;51.034;6.984;2023-06-14T14:09:01;1.13;;;1.02;;
11711;SDS011;5912;51.034;6.984;2023-06-14T14:11:27;2.40;;;1.17;;
11711;SDS011;5912;51.034;6.984;2023-06-14T14:13:53;1.30;;;0.90;;
11711;SDS011;5912;51.034;6.984;2023-06-14T14:16:18;1.20;;;1.00;;
11711;SDS011;5912;51.034;6.984;2023-06-14T14:18:45;1.50;;;1.00;;
11711;SDS011;5912;51.034;6.984;2023-06-14T14:21:11;1.00;;;0.95;;
11711;SDS011;5912;51.034;6.984;2023-06-14T14:23:36;1.10;;;1.00;;
11711;SDS011;5912;51.034;6.984;2023-06-14T14:26:02;1.23;;;0.90;;
11711;SDS011;5912;51.034;6.984;2023-06-14T14:28:29;1.52;;;1.10;;
11711;SDS011;5912;51.034;6.984;2023-06-14T14:30:55;1.35;;;0.98;;
11711;SDS011;5912;51.034;6.984;2023-06-14T14:33:20;1.13;;;1.00;;
11711;SDS011;5912;51.034;6.984;2023-06-14T14:35:46;1.92;;;1.38;;
11711;SDS011;5912;51.034;6.984;2023-06-14T14:38:11;0.80;;;0.80;;
11711;SDS011;5912;51.034;6.984;2023-06-14T14:40:38;1.40;;;1.20;;
11711;SDS011;5912;51.034;6.984;2023-06-14T14:43:05;1.83;;;1.13;;
11711;SDS011;5912;51.034;6.984;2023-06-14T14:45:30;3.42;;;1.25;;
11711;SDS011;5912;51.034;6.984;2023-06-14T14:47:55;1.15;;;1.00;;
11711;SDS011;5912;51.034;6.984;2023-06-14T14:50:21;1.20;;;1.10;;
11711;SDS011;5912;51.034;6.984;2023-06-14T14:52:46;1.20;;;1.10;;
11711;SDS011;5912;51.034;6.984;2023-06-14T14:55:11;1.23;;;1.13;;
11711;SDS011;5912;51.034;6.984;2023-06-14T14:57:37;3.40;;;1.17;;
11711;SDS011;5912;51.034;6.984;2023-06-14T15:00:03;1.10;;;1.00;;
11711;SDS011;5912;51.034;6.984;2023-06-14T15:02:30;1.85;;;1.13;;
11711;SDS011;5912;51.034;6.984;2023-06-14T15:04:55;2.42;;;1.20;;
11711;SDS011;5912;51.034;6.984;2023-06-14T15:07:25;3.78;;;1.65;;
11711;SDS011;5912;51.034;6.984;2023-06-14T15:09:51;1.30;;;1.10;;
11711;SDS011;5912;51.034;6.984;2023-06-14T15:12:16;1.10;;;1.00;;
11711;SDS011;5912;51.034;6.984;2023-06-14T15:14:41;2.35;;;1.20;;
11711;SDS011;5912;51.034;6.984;2023-06-14T15:17:07;1.10;;;1.00;;
11711;SDS011;5912;51.034;6.984;2023-06-14T15:19:32;2.30;;;1.30;;
11711;SDS011;5912;51.034;6.984;2023-06-14T15:21:59;2.92;;;1.40;;